Time;durP1;ratioP1;P1;durP2;ratioP2;P2;SDS_P1;SDS_P2;PMS_P1;PMS_P2;Temp;Humidity;BMP_temperature;BMP_pressure;BME280_temperature;BME280_humidity;BME280_pressure;Samples;Min_cycle;Max_cycle;Signal;HPM_P1;HPM_P2
2021/12/18 00:00:39;;;;;;;13.00;4.70;;;7.40;99.90;;;;;;5024886;28;20132;-69
2021/12/18 00:03:06;;;;;;;7.53;3.78;;;7.40;99.90;;;;;;5052106;28;20120;-68
2021/12/18 00:05:32;;;;;;;9.65;3.55;;;7.40;99.90;;;;;;5028425;28;20057;-69
2021/12/18 00:07:58;;;;;;;8.68;3.20;;;7.40;99.90;;;;;;5032879;28;20049;-68
2021/12/18 00:10:24;;;;;;;5.75;3.03;;;7.40;99.90;;;;;;5034624;28;20130;-66
2021/12/18 00:12:52;;;;;;;5.30;3.10;;;7.40;99.90;;;;;;5033878;28;20053;-70
2021/12/18 00:15:23;;;;;;;5.05;3.00;;;7.40;99.90;;;;;;5034781;28;20051;-69
2021/12/18 00:17:48;;;;;;;7.50;3.03;;;7.40;99.90;;;;;;5051948;28;20045;-68
2021/12/18 00:20:16;;;;;;;8.35;3.20;;;7.40;99.90;;;;;;5035322;28;20508;-69
2021/12/18 00:22:43;;;;;;;9.75;2.85;;;7.40;99.90;;;;;;5034063;28;20045;-69
2021/12/18 00:25:09;;;;;;;10.80;2.92;;;7.30;99.90;;;;;;5034599;28;20044;-68
2021/12/18 00:27:35;;;;;;;8.85;2.50;;;7.30;99.90;;;;;;5033636;28;20485;-70
2021/12/18 00:30:01;;;;;;;7.65;3.25;;;7.30;99.90;;;;;;5034338;28;20052;-68
2021/12/18 00:32:26;;;;;;;4.93;2.38;;;7.30;99.90;;;;;;5033670;28;20457;-70
2021/12/18 00:34:52;;;;;;;6.40;2.75;;;7.30;99.90;;;;;;5031180;28;20493;-68
2021/12/18 00:37:17;;;;;;;8.20;3.20;;;7.20;99.90;;;;;;5033671;28;20061;-67
2021/12/18 00:39:54;;;;;;;10.07;2.67;;;7.20;99.90;;;;;;5034554;28;20055;-69
2021/12/18 00:42:25;;;;;;;14.43;3.38;;;7.30;99.90;;;;;;5028555;28;20417;-70
2021/12/18 00:44:51;;;;;;;10.55;3.20;;;7.20;99.90;;;;;;5027839;28;20053;-70
2021/12/18 00:47:17;;;;;;;20.40;3.97;;;7.20;99.90;;;;;;5032995;28;20408;-68
2021/12/18 00:49:42;;;;;;;14.02;2.83;;;7.10;99.90;;;;;;5018111;28;20057;-68
2021/12/18 00:52:08;;;;;;;13.07;3.05;;;7.10;99.90;;;;;;5051762;28;20054;-69
2021/12/18 00:54:35;;;;;;;8.93;2.67;;;7.00;99.90;;;;;;5034996;28;20045;-71
2021/12/18 00:57:01;;;;;;;12.30;2.63;;;7.10;99.90;;;;;;5032051;28;20045;-69
2021/12/18 00:59:27;;;;;;;21.23;2.72;;;7.00;99.90;;;;;;5018871;28;20049;-70
2021/12/18 01:01:52;;;;;;;13.43;2.95;;;7.00;99.90;;;;;;5033517;28;20527;-70
2021/12/18 01:04:18;;;;;;;13.98;2.60;;;7.00;99.90;;;;;;5038131;28;20049;-67
2021/12/18 01:06:44;;;;;;;10.05;2.85;;;7.00;99.90;;;;;;5055701;28;20049;-68
2021/12/18 01:09:10;;;;;;;8.65;2.70;;;7.00;99.90;;;;;;5037527;28;20144;-71
2021/12/18 01:11:44;;;;;;;13.43;3.15;;;7.00;99.90;;;;;;5036860;28;20162;-69
2021/12/18 01:14:20;;;;;;;5.80;2.50;;;7.00;99.90;;;;;;5032765;28;20120;-69
2021/12/18 01:22:42;;;;;;;9.85;1.95;;;6.90;99.90;;;;;;5056029;28;20052;-69
2021/12/18 01:22:42;;;;;;;6.93;2.85;;;7.00;99.90;;;;;;5033130;28;20099;-70
2021/12/18 01:25:08;;;;;;;9.85;2.30;;;6.90;99.90;;;;;;5037820;28;20059;-68
2021/12/18 01:27:34;;;;;;;3.25;1.55;;;6.90;99.90;;;;;;5037603;28;20476;-70
2021/12/18 01:30:00;;;;;;;4.72;1.98;;;6.90;99.90;;;;;;5037969;28;20052;-72
2021/12/18 01:32:28;;;;;;;5.63;2.53;;;6.80;99.90;;;;;;5044735;28;20071;-69
2021/12/18 01:34:53;;;;;;;4.28;2.22;;;6.90;99.90;;;;;;5018770;28;20049;-69
2021/12/18 01:37:20;;;;;;;3.13;1.50;;;6.80;99.90;;;;;;5017679;28;20135;-70
2021/12/18 01:39:46;;;;;;;3.58;1.90;;;6.80;99.90;;;;;;5023413;28;20095;-69
2021/12/18 01:42:52;;;;;;;4.68;1.70;;;6.90;99.90;;;;;;5034353;28;20461;-68
2021/12/18 01:53:00;;;;;;;3.08;1.80;;;6.90;99.90;;;;;;5055144;28;20143;-69
2021/12/18 01:55:28;;;;;;;4.55;2.00;;;6.90;99.90;;;;;;5054809;28;20110;-69
2021/12/18 01:57:53;;;;;;;4.70;2.30;;;6.90;99.90;;;;;;5035592;28;20045;-70
2021/12/18 02:00:25;;;;;;;5.88;2.00;;;6.90;99.90;;;;;;5037201;28;20111;-70
2021/12/18 02:02:51;;;;;;;5.95;2.20;;;6.90;99.90;;;;;;5054512;28;20048;-70
2021/12/18 02:05:17;;;;;;;3.08;1.50;;;6.90;99.90;;;;;;5054191;28;20128;-70
2021/12/18 02:07:43;;;;;;;5.38;1.90;;;6.90;99.90;;;;;;5020421;28;20052;-69
2021/12/18 02:10:22;;;;;;;5.85;2.10;;;6.90;99.90;;;;;;5036876;28;20076;-70
2021/12/18 02:21:12;;;;;;;4.57;1.98;;;6.90;99.90;;;;;;4976629;28;20046;-70
2021/12/18 02:23:38;;;;;;;5.50;1.88;;;6.90;99.90;;;;;;5015486;28;20504;-69
2021/12/18 02:26:04;;;;;;;2.92;1.98;;;6.90;99.90;;;;;;5036169;28;20060;-69
2021/12/18 02:28:30;;;;;;;3.30;1.40;;;6.90;99.90;;;;;;5036611;28;20049;-69
2021/12/18 02:30:57;;;;;;;5.97;1.90;;;6.80;99.90;;;;;;5036475;28;20128;-68
2021/12/18 02:33:23;;;;;;;6.60;1.58;;;6.80;99.90;;;;;;5020823;28;20046;-67
2021/12/18 02:35:52;;;;;;;5.78;1.55;;;6.70;99.90;;;;;;5031024;28;20404;-70
2021/12/18 02:38:25;;;;;;;6.55;1.70;;;6.70;99.90;;;;;;5036241;28;20056;-73
2021/12/18 02:41:09;;;;;;;7.38;1.50;;;6.60;99.90;;;;;;5034580;28;20156;-68
2021/12/18 02:43:37;;;;;;;2.67;1.40;;;6.60;99.90;;;;;;5036885;28;20049;-72
2021/12/18 02:46:07;;;;;;;2.42;1.30;;;6.50;99.90;;;;;;5035433;28;20107;-69
2021/12/18 02:48:35;;;;;;;2.53;1.25;;;6.40;99.90;;;;;;5054503;28;20045;-68
2021/12/18 02:51:01;;;;;;;4.93;1.80;;;6.50;99.90;;;;;;5036312;28;20469;-69
2021/12/18 02:53:27;;;;;;;5.65;1.83;;;6.50;99.90;;;;;;5036127;28;20412;-70
2021/12/18 02:55:55;;;;;;;4.07;1.35;;;6.50;99.90;;;;;;5034738;28;20041;-68
2021/12/18 02:58:20;;;;;;;4.05;1.30;;;6.50;99.90;;;;;;5036415;28;20057;-68
2021/12/18 03:00:46;;;;;;;4.53;1.30;;;6.50;99.90;;;;;;5035004;28;20135;-68
2021/12/18 03:03:14;;;;;;;3.33;1.90;;;6.50;99.90;;;;;;5035389;28;20060;-68
2021/12/18 03:05:48;;;;;;;3.53;1.77;;;6.50;99.90;;;;;;5036310;28;20045;-68
2021/12/18 03:08:21;;;;;;;4.43;1.50;;;6.50;99.90;;;;;;5035474;28;20126;-68
2021/12/18 03:19:44;;;;;;;2.63;1.38;;;6.50;99.90;;;;;;5035473;28;20057;-69
2021/12/18 03:26:57;;;;;;;3.28;1.50;;;6.50;99.90;;;;;;5048018;28;20061;-69
2021/12/18 03:29:23;;;;;;;3.58;1.60;;;6.40;99.90;;;;;;5035310;28;20342;-68
2021/12/18 03:31:48;;;;;;;2.97;1.85;;;6.50;99.90;;;;;;5035005;28;20408;-70
2021/12/18 03:34:14;;;;;;;3.28;1.70;;;6.40;99.90;;;;;;5034872;28;20184;-70
2021/12/18 03:36:40;;;;;;;2.58;1.60;;;6.40;99.90;;;;;;5035466;28;20040;-70
2021/12/18 03:39:05;;;;;;;4.00;1.63;;;6.50;99.90;;;;;;5052652;28;20139;-71
2021/12/18 03:41:32;;;;;;;2.70;1.50;;;6.40;99.90;;;;;;5035057;28;20049;-71
2021/12/18 03:43:57;;;;;;;2.67;1.50;;;6.50;99.90;;;;;;5034690;28;20132;-70
2021/12/18 03:46:23;;;;;;;2.20;1.25;;;6.50;99.90;;;;;;5033712;28;20171;-68
2021/12/18 03:48:48;;;;;;;2.97;1.80;;;6.50;99.90;;;;;;5026425;28;20069;-69
2021/12/18 03:51:14;;;;;;;4.10;1.75;;;6.50;99.90;;;;;;5032609;28;20111;-71
2021/12/18 03:53:39;;;;;;;2.00;1.40;;;6.50;99.90;;;;;;5035514;28;20052;-68
2021/12/18 03:56:06;;;;;;;1.58;0.95;;;6.50;99.90;;;;;;5034345;28;20037;-69
2021/12/18 03:58:31;;;;;;;2.78;1.38;;;6.50;99.90;;;;;;5035161;28;20080;-69
2021/12/18 04:00:57;;;;;;;2.15;1.20;;;6.40;99.90;;;;;;5051359;28;20076;-69
2021/12/18 04:03:23;;;;;;;2.50;1.13;;;6.30;99.90;;;;;;5033972;28;20049;-68
2021/12/18 04:05:49;;;;;;;2.38;1.20;;;6.30;99.90;;;;;;5034521;28;20060;-69
2021/12/18 04:08:15;;;;;;;2.58;1.15;;;6.30;99.90;;;;;;5033915;28;20041;-70
2021/12/18 04:10:41;;;;;;;2.75;1.50;;;6.30;99.90;;;;;;5018325;28;20051;-71
2021/12/18 04:13:08;;;;;;;3.85;1.45;;;6.30;99.90;;;;;;5051277;28;20488;-68
2021/12/18 04:15:38;;;;;;;2.30;0.90;;;6.20;99.90;;;;;;5034046;28;20052;-70
2021/12/18 04:18:04;;;;;;;3.45;1.30;;;6.20;99.90;;;;;;5033549;28;20045;-68
2021/12/18 04:20:30;;;;;;;8.80;1.92;;;6.20;99.90;;;;;;5034205;28;20064;-69
2021/12/18 04:22:55;;;;;;;2.83;1.50;;;6.20;99.90;;;;;;5018634;28;20194;-68
2021/12/18 04:25:21;;;;;;;4.93;1.73;;;6.20;99.90;;;;;;5034147;28;20409;-70
2021/12/18 04:27:47;;;;;;;4.93;1.80;;;6.20;99.90;;;;;;5051935;28;20064;-69
2021/12/18 04:30:13;;;;;;;3.88;1.65;;;6.30;99.90;;;;;;5053271;28;20074;-71
2021/12/18 04:32:39;;;;;;;3.58;1.58;;;6.20;99.90;;;;;;5037267;28;20060;-69
2021/12/18 04:35:05;;;;;;;4.57;1.40;;;6.20;99.90;;;;;;5055811;28;20068;-70
2021/12/18 04:37:31;;;;;;;3.22;1.42;;;6.20;99.90;;;;;;5036657;28;20430;-70
2021/12/18 04:39:56;;;;;;;3.30;1.13;;;6.20;99.90;;;;;;5039661;28;20074;-70
2021/12/18 04:42:22;;;;;;;3.10;1.35;;;6.20;99.90;;;;;;5037478;28;20067;-70
2021/12/18 04:44:48;;;;;;;4.13;1.42;;;6.20;99.90;;;;;;5055485;28;20048;-69
2021/12/18 04:47:14;;;;;;;3.80;1.35;;;6.20;99.90;;;;;;5036723;28;20049;-68
2021/12/18 04:49:39;;;;;;;4.10;1.90;;;6.20;99.90;;;;;;5034338;28;20103;-70
2021/12/18 04:52:05;;;;;;;3.35;1.60;;;6.30;99.90;;;;;;5037999;28;20049;-69
2021/12/18 04:54:31;;;;;;;3.83;1.40;;;6.20;99.90;;;;;;5038900;28;20099;-67
2021/12/18 04:56:57;;;;;;;4.15;1.73;;;6.20;99.90;;;;;;5038140;28;20080;-71
2021/12/18 04:59:23;;;;;;;4.07;1.70;;;6.20;99.90;;;;;;5038530;28;20071;-69
2021/12/18 05:01:51;;;;;;;2.47;1.33;;;6.20;99.90;;;;;;5037596;28;20044;-71
2021/12/18 05:04:16;;;;;;;3.30;1.50;;;6.20;99.90;;;;;;5037860;28;20052;-69
2021/12/18 05:06:45;;;;;;;2.80;1.50;;;6.20;99.90;;;;;;5055482;28;20098;-68
2021/12/18 05:09:12;;;;;;;3.25;1.30;;;6.20;99.90;;;;;;5054747;28;20048;-70
2021/12/18 05:11:38;;;;;;;2.38;1.10;;;6.20;99.90;;;;;;5037651;28;20057;-70
2021/12/18 05:14:04;;;;;;;4.15;1.50;;;6.20;99.90;;;;;;5037353;28;20052;-69
2021/12/18 05:16:29;;;;;;;2.92;1.27;;;6.20;99.90;;;;;;5036719;28;20045;-68
2021/12/18 05:18:55;;;;;;;3.95;1.30;;;6.20;99.90;;;;;;5055308;28;20037;-70
2021/12/18 05:21:21;;;;;;;5.18;1.60;;;6.20;99.90;;;;;;5037028;28;20107;-69
2021/12/18 05:23:47;;;;;;;5.13;1.52;;;6.20;99.90;;;;;;5055275;28;20068;-69
2021/12/18 05:26:12;;;;;;;4.00;1.38;;;6.20;99.90;;;;;;5037737;28;20045;-67
2021/12/18 05:28:38;;;;;;;6.57;1.77;;;6.20;99.90;;;;;;5037559;28;20049;-71
2021/12/18 05:31:04;;;;;;;4.72;1.67;;;6.20;99.90;;;;;;5026876;28;20389;-68
2021/12/18 05:33:29;;;;;;;2.92;1.40;;;6.20;99.90;;;;;;5037770;28;20128;-70
2021/12/18 05:35:55;;;;;;;6.03;1.40;;;6.20;99.90;;;;;;5055574;28;20052;-73
2021/12/18 05:38:20;;;;;;;4.00;1.33;;;6.10;99.90;;;;;;5055338;28;20053;-71
2021/12/18 05:40:46;;;;;;;5.82;1.40;;;6.10;99.90;;;;;;5036717;28;20053;-71
2021/12/18 05:43:11;;;;;;;3.38;1.42;;;6.10;99.90;;;;;;5037306;28;20053;-68
2021/12/18 05:45:37;;;;;;;4.63;1.55;;;6.20;99.90;;;;;;5034447;28;20137;-68
2021/12/18 05:48:04;;;;;;;3.85;1.60;;;6.20;99.90;;;;;;5037048;28;20041;-67
2021/12/18 05:50:29;;;;;;;8.18;1.80;;;6.20;99.90;;;;;;5035876;28;20064;-68
2021/12/18 05:52:58;;;;;;;6.00;1.80;;;6.20;99.90;;;;;;5036841;28;20409;-69
2021/12/18 05:55:25;;;;;;;8.10;1.83;;;6.20;99.90;;;;;;5055395;28;20053;-68
2021/12/18 05:57:52;;;;;;;9.23;2.50;;;6.20;99.90;;;;;;5037504;28;20053;-67
2021/12/18 06:00:19;;;;;;;6.32;2.33;;;6.20;99.90;;;;;;5036876;28;20080;-69
2021/12/18 06:02:45;;;;;;;6.93;2.47;;;6.20;99.90;;;;;;5036473;28;20072;-72
2021/12/18 06:05:11;;;;;;;7.28;2.33;;;6.20;99.90;;;;;;5054591;28;20104;-71
2021/12/18 06:08:12;;;;;;;5.05;2.33;;;6.20;99.90;;;;;;5035763;28;20588;-69
2021/12/18 06:10:31;;;;;;;6.97;2.17;;;6.30;99.90;;;;;;5033698;28;20045;-70
2021/12/18 06:12:57;;;;;;;6.57;2.35;;;6.20;99.90;;;;;;5036749;28;20056;-71
2021/12/18 06:15:23;;;;;;;8.10;2.22;;;6.20;99.90;;;;;;5035777;28;20056;-70
2021/12/18 06:17:49;;;;;;;5.32;2.10;;;6.30;99.90;;;;;;5053484;28;20061;-69
2021/12/18 06:20:14;;;;;;;5.72;1.92;;;6.30;99.90;;;;;;5023247;28;20068;-70
2021/12/18 06:22:40;;;;;;;5.95;2.20;;;6.30;99.90;;;;;;5052921;28;20111;-70
2021/12/18 06:25:06;;;;;;;5.97;2.50;;;6.30;99.90;;;;;;5037090;28;20053;-68
2021/12/18 06:27:32;;;;;;;7.00;2.47;;;6.30;99.90;;;;;;5036182;28;20053;-69
2021/12/18 06:29:58;;;;;;;8.75;2.90;;;6.30;99.90;;;;;;5036970;28;20060;-68
2021/12/18 06:32:24;;;;;;;6.47;2.60;;;6.40;99.90;;;;;;5053423;28;20128;-69
2021/12/18 06:34:49;;;;;;;6.70;2.80;;;6.40;99.90;;;;;;5032660;28;20067;-71
2021/12/18 06:37:15;;;;;;;7.28;2.50;;;6.40;99.90;;;;;;5036030;28;20120;-69
2021/12/18 06:39:40;;;;;;;9.38;2.85;;;6.50;99.90;;;;;;5054600;28;20049;-70
2021/12/18 06:42:06;;;;;;;10.23;3.67;;;6.40;99.90;;;;;;5036167;28;20048;-69
2021/12/18 06:44:32;;;;;;;9.90;3.67;;;6.50;99.90;;;;;;5035539;28;20053;-68
2021/12/18 06:46:57;;;;;;;7.32;3.22;;;6.50;99.90;;;;;;5035062;28;20037;-71
2021/12/18 06:49:26;;;;;;;7.55;3.35;;;6.50;99.90;;;;;;5035671;28;20623;-71
2021/12/18 06:51:52;;;;;;;8.93;3.33;;;6.50;99.90;;;;;;5035274;28;20493;-68
2021/12/18 06:54:17;;;;;;;9.23;3.83;;;6.50;99.90;;;;;;5035375;28;20047;-72
2021/12/18 06:56:43;;;;;;;7.68;3.08;;;6.50;99.90;;;;;;5036198;28;20095;-71
2021/12/18 06:59:08;;;;;;;7.57;3.70;;;6.50;99.90;;;;;;5034876;28;20405;-69
2021/12/18 07:01:36;;;;;;;12.43;4.88;;;6.60;99.90;;;;;;5034333;28;20410;-69
2021/12/18 07:04:01;;;;;;;11.07;4.30;;;6.50;99.90;;;;;;5033133;28;20051;-70
2021/12/18 07:06:28;;;;;;;11.50;4.10;;;6.60;99.90;;;;;;5035268;28;20045;-69
2021/12/18 07:08:54;;;;;;;11.73;3.72;;;6.60;99.90;;;;;;5036214;28;20429;-69
2021/12/18 07:11:19;;;;;;;13.25;3.83;;;6.60;99.90;;;;;;5036000;28;20064;-67
2021/12/18 07:13:45;;;;;;;8.93;3.40;;;6.60;99.90;;;;;;5035148;28;20107;-69
2021/12/18 07:16:11;;;;;;;8.02;3.33;;;6.60;99.90;;;;;;5035269;28;20088;-67
2021/12/18 07:18:36;;;;;;;10.25;3.50;;;6.60;99.90;;;;;;5035060;28;20171;-69
2021/12/18 07:21:02;;;;;;;11.13;3.70;;;6.70;99.90;;;;;;5044835;28;20049;-71
2021/12/18 07:23:28;;;;;;;9.80;3.63;;;6.60;99.90;;;;;;5025381;28;20049;-70
2021/12/18 07:25:53;;;;;;;15.80;4.50;;;6.60;99.90;;;;;;5035254;28;20056;-70
2021/12/18 07:28:19;;;;;;;9.38;3.58;;;6.70;99.90;;;;;;5035966;28;20083;-68
2021/12/18 07:30:45;;;;;;;9.98;4.30;;;6.70;99.90;;;;;;5051499;28;20060;-69
2021/12/18 07:33:11;;;;;;;11.25;4.32;;;6.70;99.90;;;;;;5035065;28;20120;-70
2021/12/18 07:35:40;;;;;;;13.88;4.30;;;6.70;99.90;;;;;;5034088;28;20057;-70
2021/12/18 07:38:07;;;;;;;11.05;4.18;;;6.70;99.90;;;;;;5019552;28;20064;-69
2021/12/18 07:40:33;;;;;;;13.65;4.78;;;6.70;99.90;;;;;;5035315;28;20424;-68
2021/12/18 07:43:00;;;;;;;14.30;5.18;;;6.80;99.90;;;;;;5031712;28;20043;-70
2021/12/18 07:45:26;;;;;;;13.65;4.47;;;6.80;99.90;;;;;;5035386;28;20076;-68
2021/12/18 07:47:52;;;;;;;11.73;4.40;;;6.80;99.90;;;;;;5036295;28;20088;-72
2021/12/18 07:50:19;;;;;;;16.20;4.25;;;6.80;99.90;;;;;;5040125;28;20044;-69
2021/12/18 07:52:46;;;;;;;11.60;3.75;;;6.80;99.90;;;;;;5034423;28;20119;-70
2021/12/18 07:55:11;;;;;;;12.85;4.50;;;6.80;99.90;;;;;;5035533;28;20397;-70
2021/12/18 07:57:37;;;;;;;11.32;4.18;;;6.80;99.90;;;;;;5034518;28;20052;-70
2021/12/18 08:00:06;;;;;;;13.70;4.35;;;6.80;99.90;;;;;;5034685;28;20049;-69
2021/12/18 08:02:32;;;;;;;15.02;4.28;;;6.80;99.90;;;;;;5017666;28;20061;-68
2021/12/18 08:04:57;;;;;;;13.27;4.53;;;6.80;99.90;;;;;;5034698;28;20049;-70
2021/12/18 08:07:23;;;;;;;12.70;4.72;;;6.80;99.90;;;;;;5033528;28;20194;-68
2021/12/18 08:09:48;;;;;;;15.07;5.80;;;6.90;99.90;;;;;;5034111;28;20113;-69
2021/12/18 08:12:14;;;;;;;13.70;5.13;;;6.90;99.90;;;;;;5034737;28;20060;-67
2021/12/18 08:14:39;;;;;;;17.08;6.10;;;6.90;99.90;;;;;;5034298;28;20048;-69
2021/12/18 08:17:05;;;;;;;13.27;5.88;;;6.90;99.90;;;;;;5032793;28;20131;-68
2021/12/18 08:19:31;;;;;;;14.68;6.22;;;6.90;99.90;;;;;;5035030;28;20183;-69
2021/12/18 08:21:56;;;;;;;12.48;6.35;;;7.00;99.90;;;;;;5048955;28;20083;-69
2021/12/18 08:24:22;;;;;;;14.40;6.32;;;7.00;99.90;;;;;;5052692;28;20053;-69
2021/12/18 08:26:47;;;;;;;16.02;6.18;;;7.00;99.90;;;;;;5034675;28;20060;-70
2021/12/18 08:29:13;;;;;;;14.55;6.35;;;7.00;99.90;;;;;;5034436;28;20235;-68
2021/12/18 08:31:39;;;;;;;15.35;7.78;;;7.00;99.90;;;;;;5034364;28;20045;-69
2021/12/18 08:34:04;;;;;;;14.75;6.50;;;7.10;99.90;;;;;;5034657;28;20056;-69
2021/12/18 08:36:30;;;;;;;18.45;8.18;;;7.10;99.90;;;;;;5033553;28;20053;-69
2021/12/18 08:38:55;;;;;;;13.15;5.93;;;7.10;99.90;;;;;;5033537;28;20049;-69
2021/12/18 08:41:22;;;;;;;13.77;6.13;;;7.10;99.90;;;;;;5034318;28;20056;-68
2021/12/18 08:43:49;;;;;;;13.25;4.85;;;7.20;99.90;;;;;;5033895;28;20055;-68
2021/12/18 08:46:15;;;;;;;13.95;5.95;;;7.20;99.90;;;;;;5014497;28;20049;-71
2021/12/18 08:48:40;;;;;;;11.52;5.68;;;7.20;99.90;;;;;;5030796;28;20500;-68
2021/12/18 08:51:06;;;;;;;11.68;5.93;;;7.20;99.90;;;;;;5034095;28;20056;-68
2021/12/18 08:53:31;;;;;;;15.77;6.20;;;7.20;99.90;;;;;;5021181;28;20053;-68
2021/12/18 08:55:57;;;;;;;16.42;6.38;;;7.30;99.90;;;;;;5015076;28;20061;-68
2021/12/18 08:58:23;;;;;;;15.07;6.20;;;7.30;99.90;;;;;;5015036;28;20049;-69
2021/12/18 09:00:48;;;;;;;15.05;6.43;;;7.30;99.90;;;;;;5014068;28;20057;-69
2021/12/18 09:03:14;;;;;;;12.77;5.50;;;7.30;99.90;;;;;;5014844;28;20050;-69
2021/12/18 09:05:39;;;;;;;12.93;5.50;;;7.40;99.90;;;;;;5032466;28;20053;-69
2021/12/18 09:08:05;;;;;;;11.65;5.93;;;7.30;99.90;;;;;;5027631;28;20052;-69
2021/12/18 09:10:31;;;;;;;15.40;5.40;;;7.40;99.90;;;;;;5034379;28;20065;-69
2021/12/18 09:12:57;;;;;;;13.82;5.57;;;7.40;99.90;;;;;;5052204;28;20064;-68
2021/12/18 09:15:23;;;;;;;11.95;5.30;;;7.40;99.90;;;;;;5052507;28;20481;-69
2021/12/18 09:17:49;;;;;;;13.98;6.07;;;7.40;99.90;;;;;;5036821;28;20099;-69
2021/12/18 09:20:15;;;;;;;11.75;5.30;;;7.40;99.90;;;;;;5037992;28;20084;-69
2021/12/18 09:22:41;;;;;;;12.40;5.03;;;7.50;99.90;;;;;;5025878;28;20079;-69
2021/12/18 09:25:07;;;;;;;13.55;5.45;;;7.50;99.90;;;;;;5018553;28;20057;-69
2021/12/18 09:27:34;;;;;;;14.65;5.60;;;7.50;99.90;;;;;;5017846;28;20050;-71
2021/12/18 09:30:00;;;;;;;12.88;5.47;;;7.50;99.90;;;;;;5020391;28;20486;-70
2021/12/18 09:32:26;;;;;;;10.93;5.60;;;7.60;99.90;;;;;;5035478;28;20053;-73
2021/12/18 09:34:51;;;;;;;16.67;5.22;;;7.60;99.90;;;;;;5018610;28;20053;-70
2021/12/18 09:37:17;;;;;;;11.98;5.00;;;7.60;99.90;;;;;;5023865;28;20461;-71
2021/12/18 09:39:42;;;;;;;12.13;5.60;;;7.70;99.90;;;;;;5037578;28;20142;-68
2021/12/18 09:42:08;;;;;;;15.20;5.40;;;7.60;99.90;;;;;;5038061;28;20092;-69
2021/12/18 09:44:35;;;;;;;12.65;5.43;;;7.70;99.90;;;;;;5038869;28;20059;-71
2021/12/18 09:47:03;;;;;;;11.95;5.35;;;7.70;99.90;;;;;;5037296;28;20049;-71
2021/12/18 09:49:29;;;;;;;13.27;4.65;;;7.70;99.90;;;;;;5037415;28;20055;-68
2021/12/18 09:51:55;;;;;;;12.20;4.70;;;7.70;99.90;;;;;;5037068;28;20048;-72
2021/12/18 09:54:23;;;;;;;11.90;5.47;;;7.80;99.90;;;;;;5052787;28;20360;-69
2021/12/18 09:56:48;;;;;;;10.52;4.47;;;7.90;99.90;;;;;;5052156;28;20053;-72
2021/12/18 09:59:14;;;;;;;9.10;4.07;;;7.90;99.90;;;;;;5050070;28;20140;-69
2021/12/18 10:01:40;;;;;;;8.20;3.90;;;7.90;99.90;;;;;;5036249;28;20056;-69
2021/12/18 10:04:22;;;;;;;8.80;3.78;;;8.00;99.90;;;;;;5036263;28;20135;-69
2021/12/18 10:06:47;;;;;;;7.68;3.65;;;8.00;99.90;;;;;;5062142;28;20051;-70
2021/12/18 10:09:30;;;;;;;9.10;3.60;;;8.10;99.90;;;;;;5057323;28;20057;-70
2021/12/18 10:12:00;;;;;;;6.88;2.97;;;8.10;99.90;;;;;;5073888;28;20056;-69
2021/12/18 10:14:38;;;;;;;6.00;3.10;;;8.20;99.90;;;;;;5043576;28;20240;-68
2021/12/18 10:17:09;;;;;;;7.03;3.17;;;8.20;99.90;;;;;;5046835;28;20060;-69
2021/12/18 10:19:39;;;;;;;9.73;3.67;;;8.20;99.90;;;;;;5036282;28;20094;-70
2021/12/18 10:22:07;;;;;;;6.55;3.15;;;8.30;99.90;;;;;;5037939;28;20064;-67
2021/12/18 10:24:35;;;;;;;8.75;2.97;;;8.40;99.90;;;;;;5041040;28;20053;-68
2021/12/18 10:27:14;;;;;;;8.70;2.70;;;8.40;99.90;;;;;;5033632;28;20088;-67
2021/12/18 10:29:40;;;;;;;6.38;2.58;;;8.40;99.90;;;;;;5032208;28;20405;-69
2021/12/18 10:32:13;;;;;;;7.68;2.92;;;8.40;99.90;;;;;;5053175;28;20508;-66
2021/12/18 10:34:41;;;;;;;7.75;3.10;;;8.50;99.90;;;;;;5045047;28;20089;-67
2021/12/18 10:37:13;;;;;;;5.43;2.38;;;8.60;99.90;;;;;;5036615;28;20501;-69
2021/12/18 10:39:44;;;;;;;6.93;2.75;;;;;;;;;;5052436;28;20100;-67
2021/12/18 10:42:16;;;;;;;7.57;3.17;;;8.60;99.90;;;;;;5054690;28;20072;-70
2021/12/18 10:45:21;;;;;;;;;;;8.60;99.90;;;;;;5041864;28;20045;-67
2021/12/18 10:47:54;;;;;;;6.45;2.40;;;8.60;99.90;;;;;;4961576;28;20017;-68
2021/12/18 10:50:42;;;;;;;6.10;2.60;;;8.60;99.90;;;;;;4952451;28;20054;-71
2021/12/18 10:53:22;;;;;;;6.55;2.75;;;8.60;99.90;;;;;;5016872;28;20413;-69
2021/12/18 10:55:55;;;;;;;9.82;3.22;;;8.70;99.90;;;;;;5034878;28;20053;-69
2021/12/18 10:58:35;;;;;;;14.40;3.50;;;8.70;99.90;;;;;;5034905;28;20048;-70
2021/12/18 11:01:09;;;;;;;6.03;3.53;;;8.70;99.90;;;;;;5041165;28;20063;-69
2021/12/18 11:03:51;;;;;;;8.95;3.75;;;8.70;99.90;;;;;;5041224;28;20087;-70
2021/12/18 11:06:31;;;;;;;8.45;3.22;;;8.70;99.90;;;;;;5027347;28;20064;-68
2021/12/18 11:09:10;;;;;;;5.20;3.00;;;8.70;99.90;;;;;;5051070;28;20511;-68
2021/12/18 11:14:19;;;;;;;6.90;3.42;;;8.70;99.90;;;;;;5054408;28;20049;-69
2021/12/18 11:16:48;;;;;;;6.20;2.95;;;8.80;99.90;;;;;;5034515;28;20077;-68
2021/12/18 11:19:17;;;;;;;5.85;3.25;;;8.80;99.90;;;;;;5034934;28;20401;-68
2021/12/18 11:21:46;;;;;;;7.30;3.28;;;8.80;99.90;;;;;;5034148;28;20049;-68
2021/12/18 11:24:13;;;;;;;5.78;3.00;;;8.80;99.90;;;;;;5053998;28;20049;-68
2021/12/18 11:26:57;;;;;;;4.75;3.50;;;8.80;99.90;;;;;;5035209;28;20061;-68
2021/12/18 11:29:28;;;;;;;5.03;3.08;;;8.80;99.90;;;;;;5053248;28;20132;-68
2021/12/18 11:31:54;;;;;;;8.25;4.13;;;8.80;99.90;;;;;;5053217;28;20132;-67
2021/12/18 11:34:20;;;;;;;7.80;4.20;;;8.90;99.90;;;;;;5053474;28;20056;-68
2021/12/18 11:36:49;;;;;;;9.20;4.20;;;8.90;99.90;;;;;;5052198;28;20057;-67
2021/12/18 11:39:17;;;;;;;6.20;3.92;;;8.90;99.90;;;;;;5046889;28;20056;-67
2021/12/18 11:41:48;;;;;;;6.88;3.40;;;9.10;99.90;;;;;;5051160;28;20500;-69
2021/12/18 11:44:30;;;;;;;5.10;3.00;;;9.00;99.90;;;;;;5035594;28;20056;-69
2021/12/18 11:46:57;;;;;;;5.75;3.45;;;9.00;99.90;;;;;;5034604;28;20393;-68
2021/12/18 11:49:40;;;;;;;7.20;3.78;;;9.00;99.90;;;;;;5053596;28;20404;-69
2021/12/18 11:52:05;;;;;;;8.88;3.72;;;9.00;99.90;;;;;;5019357;28;20060;-68
2021/12/18 11:54:50;;;;;;;6.70;3.67;;;8.90;99.90;;;;;;5058975;28;20056;-68
2021/12/18 11:57:35;;;;;;;7.82;3.63;;;8.90;99.90;;;;;;5071170;28;20060;-68
2021/12/18 12:00:03;;;;;;;5.63;3.53;;;8.90;99.90;;;;;;5055109;28;20059;-69
2021/12/18 12:02:46;;;;;;;7.32;3.47;;;8.90;99.90;;;;;;5032872;28;20052;-68
2021/12/18 12:05:12;;;;;;;6.35;3.22;;;8.90;99.90;;;;;;5053151;28;20045;-68
2021/12/18 12:07:38;;;;;;;7.35;3.42;;;8.90;99.90;;;;;;5035092;28;20081;-68
2021/12/18 12:10:47;;;;;;;5.25;3.22;;;8.90;99.90;;;;;;5035227;28;20088;-69
2021/12/18 12:13:10;;;;;;;4.88;3.33;;;9.00;99.90;;;;;;5052055;28;20046;-69
2021/12/18 12:15:51;;;;;;;5.55;2.80;;;9.00;99.90;;;;;;5034771;28;20418;-69
2021/12/18 12:18:17;;;;;;;7.13;3.10;;;9.00;99.90;;;;;;5034642;28;20075;-69
2021/12/18 12:20:47;;;;;;;7.43;2.70;;;9.00;99.90;;;;;;5049616;28;20135;-69
2021/12/18 12:23:14;;;;;;;5.53;3.00;;;9.00;99.90;;;;;;5046115;28;20110;-69
2021/12/18 12:25:46;;;;;;;8.15;3.90;;;9.00;99.90;;;;;;5053177;28;20049;-69
2021/12/18 12:28:23;;;;;;;4.60;2.92;;;9.00;99.90;;;;;;5053042;28;20053;-68
2021/12/18 12:30:58;;;;;;;6.57;3.58;;;9.00;99.90;;;;;;5034531;28;20060;-68
2021/12/18 12:33:33;;;;;;;5.32;3.50;;;9.00;99.90;;;;;;5034910;28;20057;-70
2021/12/18 12:36:38;;;;;;;8.27;3.40;;;9.00;99.90;;;;;;5052746;28;20127;-71
2021/12/18 12:39:04;;;;;;;5.47;3.42;;;9.00;99.90;;;;;;5006738;28;20045;-69
2021/12/18 12:41:38;;;;;;;6.80;3.10;;;9.00;99.90;;;;;;5015293;28;20441;-70
2021/12/18 12:44:28;;;;;;;6.88;2.92;;;9.00;99.90;;;;;;5015556;28;20065;-69
2021/12/18 12:47:24;;;;;;;6.13;3.28;;;9.00;99.90;;;;;;5031769;28;20061;-68
2021/12/18 12:50:00;;;;;;;7.13;3.33;;;9.00;99.90;;;;;;5028311;28;20050;-71
2021/12/18 12:52:30;;;;;;;4.90;2.60;;;9.00;99.90;;;;;;5046735;28;20056;-69
2021/12/18 12:55:03;;;;;;;3.85;2.50;;;8.90;99.90;;;;;;5039069;28;20163;-70
2021/12/18 12:57:30;;;;;;;6.70;2.63;;;8.90;99.90;;;;;;5038818;28;20060;-68
2021/12/18 12:59:58;;;;;;;5.97;2.25;;;8.90;99.90;;;;;;5038949;28;20045;-68
2021/12/18 13:02:25;;;;;;;4.65;2.58;;;8.90;99.90;;;;;;5055947;28;20064;-68
2021/12/18 13:05:02;;;;;;;7.88;3.05;;;8.90;99.90;;;;;;5036681;28;20128;-71
2021/12/18 13:07:28;;;;;;;3.28;2.50;;;8.90;99.90;;;;;;5037195;28;20392;-69
2021/12/18 13:09:53;;;;;;;3.45;2.35;;;8.90;99.90;;;;;;5055195;28;20053;-69
2021/12/18 13:12:19;;;;;;;6.22;2.40;;;8.90;99.90;;;;;;5038554;28;20056;-72
2021/12/18 13:14:46;;;;;;;6.97;2.63;;;8.90;99.90;;;;;;5038740;28;20151;-71
2021/12/18 13:17:19;;;;;;;5.60;2.33;;;8.90;99.90;;;;;;5038299;28;20087;-69
2021/12/18 13:19:52;;;;;;;8.13;2.67;;;8.90;99.90;;;;;;5034204;28;20441;-70
2021/12/18 13:22:17;;;;;;;;;;;8.90;99.90;;;;;;5029752;28;20088;-70
2021/12/18 13:24:43;;;;;;;4.95;2.47;;;8.90;99.90;;;;;;5038384;28;19928;-70
2021/12/18 13:27:12;;;;;;;4.00;2.22;;;8.90;99.90;;;;;;5054725;28;20049;-69
2021/12/18 13:29:37;;;;;;;5.45;2.67;;;8.90;99.90;;;;;;5055294;28;20547;-69
2021/12/18 13:32:05;;;;;;;7.13;3.08;;;9.00;99.90;;;;;;5070027;28;20056;-70
2021/12/18 13:34:37;;;;;;;5.57;2.80;;;8.90;99.90;;;;;;5054961;28;20087;-69
2021/12/18 13:37:21;;;;;;;9.93;2.90;;;8.90;99.90;;;;;;5054090;28;20049;-69